Time;durP1;ratioP1;P1;durP2;ratioP2;P2;SDS_P1;SDS_P2;PMS_P1;PMS_P2;Temp;Humidity;BMP_temperature;BMP_pressure;BME280_temperature;BME280_humidity;BME280_pressure;Samples;Min_cycle;Max_cycle;Signal;HPM_P1;HPM_P2
2021/06/06 00:00:39;;;;;;;6.75;3.70;;;18.80;99.90;;;18.60;78.35;100801.25;5007857;28;20042;-50
2021/06/06 00:03:14;;;;;;;8.18;5.25;;;19.00;99.90;;;18.56;79.39;100799.00;5022236;28;20033;-53
2021/06/06 00:06:06;;;;;;;6.50;5.15;;;19.10;99.90;;;18.55;80.52;100804.47;5021282;28;20033;-55
2021/06/06 00:08:32;;;;;;;6.30;4.43;;;19.00;99.90;;;18.53;79.42;100803.84;5008875;28;20160;-52
2021/06/06 00:11:17;;;;;;;7.53;4.47;;;19.00;99.90;;;18.56;79.79;100798.19;5025943;28;20483;-49
2021/06/06 00:13:44;;;;;;;8.90;4.60;;;19.10;99.90;;;18.52;79.88;100804.84;5027183;28;20033;-50
2021/06/06 00:16:37;;;;;;;8.50;6.30;;;19.10;99.90;;;18.47;81.57;100804.59;5025947;28;20382;-50
2021/06/06 00:19:04;;;;;;;9.02;5.72;;;19.00;99.90;;;18.39;81.34;100808.19;5026629;28;20261;-49
2021/06/06 00:21:31;;;;;;;5.05;4.55;;;19.00;99.90;;;18.34;81.49;100815.03;5026676;28;20073;-49
2021/06/06 00:23:58;;;;;;;11.05;5.75;;;18.90;99.90;;;18.23;82.13;100814.50;5026696;28;20030;-51
2021/06/06 00:26:26;;;;;;;9.25;6.28;;;18.80;99.90;;;18.17;83.08;100825.78;5028014;28;20034;-47
2021/06/06 00:28:52;;;;;;;10.77;6.40;;;18.70;99.90;;;18.12;83.42;100822.88;5026315;28;20433;-52
2021/06/06 00:31:22;;;;;;;9.23;5.22;;;18.70;99.90;;;18.07;83.57;100819.97;5027735;28;20377;-51
2021/06/06 00:33:49;;;;;;;10.02;5.45;;;18.60;99.90;;;17.94;84.30;100825.09;5025648;28;20060;-53
2021/06/06 00:36:18;;;;;;;9.57;5.85;;;18.60;99.90;;;17.82;85.13;100821.28;5008111;28;20029;-50
2021/06/06 00:38:44;;;;;;;8.02;6.22;;;18.40;99.90;;;17.70;86.13;100828.03;5027420;28;20171;-51
2021/06/06 00:41:13;;;;;;;9.18;6.13;;;18.30;99.90;;;17.70;85.92;100828.03;5026813;28;20037;-52
2021/06/06 00:43:39;;;;;;;8.68;7.43;;;18.30;99.90;;;17.75;85.75;100849.38;5005882;28;20125;-54
2021/06/06 00:46:07;;;;;;;9.30;6.78;;;18.30;99.90;;;17.84;85.33;100862.28;5007314;28;20076;-52
2021/06/06 00:48:34;;;;;;;8.90;6.97;;;18.40;99.90;;;17.87;85.05;100867.19;5005948;28;20053;-50
2021/06/06 00:51:20;;;;;;;11.65;7.85;;;18.40;99.90;;;17.87;85.89;100863.75;5005229;28;20034;-47
2021/06/06 00:54:14;;;;;;;9.68;6.80;;;18.40;99.90;;;17.84;86.35;100854.38;4990744;28;20041;-53
2021/06/06 00:56:43;;;;;;;12.60;6.88;;;18.40;99.90;;;17.86;85.51;100848.94;4988019;28;20391;-52
2021/06/06 00:59:10;;;;;;;10.52;6.45;;;18.40;99.90;;;17.92;84.79;100839.47;4978535;28;20061;-49
2021/06/06 01:01:36;;;;;;;11.20;7.63;;;18.40;99.90;;;17.85;85.10;100847.28;4993863;28;20041;-51
2021/06/06 01:04:04;;;;;;;8.55;6.97;;;18.40;99.90;;;17.75;86.47;100842.28;5010725;28;20037;-48
2021/06/06 01:06:41;;;;;;;12.30;9.27;;;18.30;99.90;;;17.49;89.18;100832.16;5010991;28;20080;-47
2021/06/06 01:09:09;;;;;;;11.75;8.32;;;18.20;99.90;;;17.38;89.21;100810.72;5011150;28;20037;-48
2021/06/06 01:11:48;;;;;;;8.82;7.97;;;18.00;99.90;;;17.46;89.04;100811.47;5010222;28;20061;-53
2021/06/06 01:14:40;;;;;;;7.75;6.93;;;18.00;99.90;;;17.54;88.86;100807.91;4977938;28;20026;-49
2021/06/06 01:17:37;;;;;;;11.45;7.55;;;18.00;99.90;;;17.64;87.55;100797.91;5010446;28;20172;-50
2021/06/06 01:20:29;;;;;;;11.90;7.57;;;18.10;99.90;;;17.76;88.01;100803.56;5011478;28;20097;-51
2021/06/06 01:23:19;;;;;;;8.60;7.80;;;18.20;99.90;;;17.85;88.09;100803.31;5010000;28;20046;-49
2021/06/06 01:25:50;;;;;;;11.35;8.75;;;18.30;99.90;;;17.88;88.16;100810.03;5008892;28;20137;-49
2021/06/06 01:28:26;;;;;;;11.65;9.02;;;18.40;99.90;;;17.94;88.75;100798.75;4992068;28;20050;-51
2021/06/06 01:30:57;;;;;;;16.08;7.88;;;18.50;99.90;;;17.88;88.79;100794.22;5001962;28;20066;-49
2021/06/06 01:33:51;;;;;;;9.02;6.85;;;18.50;99.90;;;17.89;89.27;100795.84;4976471;28;20393;-53
2021/06/06 01:36:37;;;;;;;7.43;6.00;;;18.40;99.90;;;17.81;88.56;100786.22;5007284;28;20424;-54
2021/06/06 01:39:12;;;;;;;7.00;5.85;;;18.40;99.90;;;17.82;88.20;100776.50;5011098;28;20045;-48
2021/06/06 01:41:45;;;;;;;7.90;6.75;;;18.40;99.90;;;17.77;88.19;100765.69;5006998;28;20162;-51
2021/06/06 01:44:16;;;;;;;10.75;7.75;;;18.30;99.90;;;17.67;89.08;100767.78;5011091;28;20053;-49
2021/06/06 01:47:00;;;;;;;10.88;8.10;;;18.30;99.90;;;17.56;90.48;100758.47;4989252;28;20048;-53
2021/06/06 01:49:27;;;;;;;8.13;6.75;;;18.10;99.90;;;17.48;89.83;100748.06;5007658;28;20041;-51
2021/06/06 01:52:03;;;;;;;11.23;7.03;;;18.00;99.90;;;17.50;90.02;100746.84;5008934;28;20046;-51
2021/06/06 01:54:33;;;;;;;9.38;8.05;;;18.00;99.90;;;17.49;89.64;100742.59;4993658;28;20036;-48
2021/06/06 01:57:00;;;;;;;8.68;7.78;;;18.00;99.90;;;17.52;89.89;100746.66;4991943;28;20045;-48
2021/06/06 01:59:41;;;;;;;12.80;9.18;;;18.10;99.90;;;17.48;91.20;100746.25;5010815;28;20026;-52
2021/06/06 02:02:09;;;;;;;12.20;8.70;;;18.00;99.90;;;17.39;90.76;100743.88;4992453;28;20424;-56
2021/06/06 02:04:36;;;;;;;9.30;8.35;;;18.00;99.90;;;17.44;90.60;100744.97;5009776;28;20040;-52
2021/06/06 02:07:16;;;;;;;11.65;7.40;;;18.00;99.90;;;17.46;90.85;100742.16;4990749;28;20489;-50
2021/06/06 02:09:49;;;;;;;15.43;8.35;;;18.00;99.90;;;17.44;90.56;100741.53;5003075;28;20374;-50
2021/06/06 02:12:16;;;;;;;9.88;8.82;;;18.00;99.90;;;17.41;90.74;100755.06;5010299;28;20052;-49
2021/06/06 02:14:46;;;;;;;10.93;7.72;;;18.00;99.90;;;17.40;90.90;100754.25;5010071;28;20033;-48
2021/06/06 02:17:25;;;;;;;8.50;7.35;;;18.00;99.90;;;17.42;91.19;100773.31;5006797;28;20077;-52
2021/06/06 02:19:52;;;;;;;12.20;8.38;;;18.00;99.90;;;17.42;91.00;100762.78;5008038;28;20536;-52
2021/06/06 02:22:18;;;;;;;9.30;8.40;;;18.00;99.90;;;17.45;90.74;100751.06;5008849;28;20623;-49
2021/06/06 02:24:45;;;;;;;12.02;9.05;;;18.00;99.90;;;17.47;91.00;100757.78;4992945;28;20041;-49
2021/06/06 02:27:15;;;;;;;13.85;9.05;;;18.00;99.90;;;17.47;91.78;100760.41;5009498;28;20088;-48
2021/06/06 02:29:55;;;;;;;9.07;8.20;;;18.00;99.90;;;17.46;92.26;100765.88;5009974;28;20425;-53
2021/06/06 02:33:00;;;;;;;9.80;7.93;;;18.00;99.90;;;17.40;92.63;100754.25;5009458;28;20478;-52
2021/06/06 02:35:29;;;;;;;17.77;8.60;;;18.00;99.90;;;17.40;92.46;100762.13;5008135;28;20150;-53
2021/06/06 02:38:27;;;;;;;7.95;6.85;;;18.00;99.90;;;17.40;92.53;100759.50;5008544;28;20088;-49
2021/06/06 02:43:31;;;;;;;11.75;8.02;;;18.00;99.90;;;17.35;92.82;100759.22;4891404;22;20054;-48
2021/06/06 02:46:01;;;;;;;12.38;8.30;;;17.90;99.90;;;17.32;93.23;100756.16;5003912;28;20033;-48
2021/06/06 02:48:38;;;;;;;11.93;8.40;;;17.90;99.90;;;17.32;93.46;100735.06;5028428;28;20079;-54
2021/06/06 02:51:10;;;;;;;11.63;7.93;;;17.80;99.90;;;17.30;93.08;100751.06;5029908;28;20081;-51
2021/06/06 02:54:03;;;;;;;11.10;8.82;;;17.80;99.90;;;17.36;93.62;100760.06;5026579;28;20040;-51
2021/06/06 02:56:37;;;;;;;14.43;8.60;;;17.90;99.90;;;17.38;93.15;100750.97;5012632;28;20528;-49
2021/06/06 02:59:17;;;;;;;11.77;8.73;;;17.90;99.90;;;17.45;92.68;100749.25;5028473;28;20528;-52
2021/06/06 03:01:50;;;;;;;10.65;9.48;;;18.00;99.90;;;17.51;93.11;100751.13;5013286;28;20040;-49
2021/06/06 03:04:21;;;;;;;12.02;8.65;;;18.00;99.90;;;17.50;93.27;100754.75;5026048;28;20060;-49
2021/06/06 03:06:58;;;;;;;12.82;9.32;;;18.00;99.90;;;17.54;93.63;100758.66;5029532;28;20175;-51
2021/06/06 03:09:25;;;;;;;17.92;8.35;;;18.10;99.90;;;17.60;93.32;100746.59;5028027;28;20042;-55
2021/06/06 03:11:54;;;;;;;8.88;7.57;;;18.10;99.90;;;17.61;92.96;100732.41;5011864;28;20033;-49
2021/06/06 03:14:25;;;;;;;12.38;7.68;;;18.10;99.90;;;17.55;92.74;100726.06;5026992;28;20053;-49
2021/06/06 03:17:16;;;;;;;12.70;8.20;;;18.10;99.90;;;17.46;93.12;100724.53;5028093;28;20033;-47
2021/06/06 03:19:47;;;;;;;9.40;7.68;;;18.10;99.90;;;17.43;93.14;100726.72;5012505;28;20037;-54
2021/06/06 03:22:21;;;;;;;11.60;7.55;;;18.00;99.90;;;17.40;93.49;100717.38;5010856;28;20044;-48
2021/06/06 03:24:53;;;;;;;8.20;7.40;;;18.00;99.90;;;17.44;93.43;100702.03;5027568;28;20488;-48
2021/06/06 03:27:24;;;;;;;9.27;8.38;;;18.00;99.90;;;17.44;93.01;100702.03;5011616;28;20045;-49
2021/06/06 03:30:28;;;;;;;11.30;8.18;;;18.00;99.90;;;17.38;93.56;100703.56;5027389;28;20065;-50
2021/06/06 03:32:57;;;;;;;12.57;9.50;;;18.00;99.90;;;17.29;93.02;100728.34;5012112;28;20048;-56
2021/06/06 03:35:23;;;;;;;12.20;9.10;;;17.90;99.90;;;17.24;93.62;100741.25;5007421;28;20527;-51
2021/06/06 03:37:49;;;;;;;10.88;7.68;;;17.90;99.90;;;17.18;93.67;100752.50;5026553;28;20393;-48
2021/06/06 03:40:18;;;;;;;10.13;9.15;;;17.70;99.90;;;17.18;93.66;100749.88;5028630;28;20040;-52
2021/06/06 03:42:44;;;;;;;10.55;9.07;;;17.70;99.90;;;17.26;93.46;100747.16;5027232;28;20512;-52
2021/06/06 03:45:12;;;;;;;14.15;9.18;;;17.80;99.90;;;17.31;93.02;100743.97;5027699;28;20048;-51
2021/06/06 03:47:39;;;;;;;10.02;8.80;;;17.80;99.90;;;17.30;93.37;100726.53;5027522;28;20388;-51
2021/06/06 03:50:10;;;;;;;10.13;7.70;;;17.80;99.90;;;17.33;93.05;100732.25;5027439;28;20475;-51
2021/06/06 03:52:37;;;;;;;10.52;7.68;;;17.80;99.90;;;17.35;92.91;100730.25;5028908;28;20495;-48
2021/06/06 03:55:08;;;;;;;9.82;6.30;;;17.90;99.90;;;17.35;92.90;100726.81;5026362;28;20041;-54
2021/06/06 03:57:34;;;;;;;7.10;5.97;;;17.90;99.90;;;17.33;92.74;100711.19;5028770;28;20044;-50
2021/06/06 04:00:07;;;;;;;7.95;5.85;;;17.90;99.90;;;17.34;92.73;100707.56;5027270;28;20052;-49
2021/06/06 04:02:32;;;;;;;7.57;5.28;;;17.90;99.90;;;17.32;92.57;100699.03;5028613;28;20041;-47
2021/06/06 04:04:58;;;;;;;6.97;5.35;;;17.80;99.90;;;17.27;92.73;100698.75;5024298;28;20034;-51
2021/06/06 04:07:24;;;;;;;12.82;5.22;;;17.80;99.90;;;17.28;92.50;100710.09;5026323;28;20041;-48
2021/06/06 04:09:50;;;;;;;6.32;4.63;;;17.80;99.90;;;17.34;92.30;100725.19;5027040;28;20056;-46
2021/06/06 04:12:16;;;;;;;4.20;3.58;;;17.80;99.90;;;17.40;92.03;100735.81;5028598;28;20744;-48
2021/06/06 04:14:42;;;;;;;6.03;4.82;;;17.90;99.90;;;17.43;92.36;100748.63;5027072;28;20060;-48
2021/06/06 04:17:08;;;;;;;7.25;5.70;;;17.90;99.90;;;17.47;92.83;100749.06;5027180;28;20401;-52
2021/06/06 04:19:34;;;;;;;11.68;6.22;;;18.00;99.90;;;17.60;93.08;100751.84;5025816;28;20133;-49
2021/06/06 04:22:00;;;;;;;7.68;6.47;;;18.00;99.90;;;17.71;93.14;100748.78;5028093;28;20033;-45
2021/06/06 04:24:26;;;;;;;8.18;6.63;;;18.20;99.90;;;17.79;92.87;100751.31;5026993;28;20138;-47
2021/06/06 04:26:52;;;;;;;9.43;7.30;;;18.30;99.90;;;17.80;93.28;100760.03;5028325;28;20021;-54
2021/06/06 04:29:18;;;;;;;7.45;6.32;;;18.30;99.90;;;17.85;92.96;100762.94;5026864;28;20556;-49
2021/06/06 04:31:45;;;;;;;8.95;6.57;;;18.30;99.90;;;17.87;92.95;100756.50;5027931;28;20036;-53
2021/06/06 04:34:11;;;;;;;8.93;5.63;;;18.40;99.90;;;17.89;92.45;100759.75;5008218;28;20136;-55
2021/06/06 04:36:37;;;;;;;5.93;5.22;;;18.50;99.90;;;17.82;91.42;100755.41;5028085;28;20037;-53
2021/06/06 04:39:06;;;;;;;9.20;4.70;;;18.40;99.90;;;17.59;92.06;100760.75;5026739;28;20214;-49
2021/06/06 04:41:32;;;;;;;5.55;4.90;;;18.20;99.90;;;17.45;92.48;100751.88;5027169;28;20399;-53
2021/06/06 04:43:58;;;;;;;7.55;6.05;;;18.10;99.90;;;17.46;92.39;100760.59;5026764;28;20189;-48
2021/06/06 04:46:24;;;;;;;10.35;6.13;;;18.10;99.90;;;17.48;92.56;100755.97;5027958;28;20076;-48
2021/06/06 04:48:55;;;;;;;6.20;5.43;;;18.10;99.90;;;17.53;92.53;100754.41;5025694;28;20048;-49
2021/06/06 04:51:24;;;;;;;7.25;6.45;;;18.10;99.90;;;17.54;92.54;100760.47;5026629;28;20034;-54
2021/06/06 04:53:53;;;;;;;8.10;5.88;;;18.10;99.90;;;17.52;92.47;100752.75;5026662;28;20026;-49
2021/06/06 04:56:22;;;;;;;9.73;5.95;;;18.10;99.90;;;17.56;92.30;100751.41;5027700;28;20603;-48
2021/06/06 04:58:50;;;;;;;6.07;5.47;;;18.10;99.90;;;17.56;91.91;100748.75;5027140;28;20025;-52
2021/06/06 05:01:16;;;;;;;6.22;5.63;;;18.10;99.90;;;17.49;92.13;100753.13;5018518;28;20034;-49
2021/06/06 05:03:42;;;;;;;11.00;6.15;;;18.00;99.90;;;17.49;92.05;100747.03;5023643;28;20033;-51
2021/06/06 05:06:10;;;;;;;7.65;5.82;;;18.00;99.90;;;17.51;91.54;100751.13;5025257;28;20146;-51
2021/06/06 05:08:36;;;;;;;6.43;5.80;;;18.00;99.90;;;17.56;91.42;100754.03;5008025;28;20708;-52
2021/06/06 05:11:03;;;;;;;6.00;5.43;;;18.10;99.90;;;17.61;90.84;100752.66;5019685;28;20033;-48
2021/06/06 05:13:29;;;;;;;6.53;5.70;;;18.10;99.90;;;17.62;90.84;100759.56;5026834;28;20598;-49
2021/06/06 05:15:56;;;;;;;5.35;4.80;;;18.10;99.90;;;17.71;90.09;100751.41;5027660;28;20279;-50
2021/06/06 05:18:24;;;;;;;5.85;4.43;;;18.20;99.90;;;17.70;89.77;100759.50;5026563;28;20037;-50
2021/06/06 05:20:52;;;;;;;4.85;3.90;;;18.20;99.90;;;17.69;89.92;100763.16;5027974;28;20113;-51
2021/06/06 05:23:21;;;;;;;6.22;5.35;;;18.20;99.90;;;17.74;90.51;100766.03;5027454;28;20045;-50
2021/06/06 05:25:47;;;;;;;8.38;4.20;;;18.30;99.90;;;17.71;90.69;100772.50;5026419;28;20029;-48
2021/06/06 05:28:19;;;;;;;7.55;4.80;;;18.30;99.90;;;17.69;90.60;100782.41;5027448;28;20083;-50
2021/06/06 05:30:45;;;;;;;7.32;3.72;;;18.30;99.90;;;17.72;90.41;100784.69;5027042;28;20057;-50
2021/06/06 05:33:12;;;;;;;8.73;3.80;;;18.30;99.90;;;17.72;90.26;100789.13;5026149;28;20099;-52
2021/06/06 05:35:39;;;;;;;7.78;4.80;;;18.30;99.90;;;17.68;90.66;100785.22;5027160;28;20496;-49
2021/06/06 05:38:10;;;;;;;4.07;3.67;;;18.20;99.90;;;17.65;90.66;100782.91;5026294;28;20069;-52
2021/06/06 05:40:39;;;;;;;6.05;4.55;;;18.20;99.90;;;17.61;90.81;100782.47;5026377;28;20435;-50
2021/06/06 05:43:05;;;;;;;9.57;5.97;;;18.10;99.90;;;17.56;91.45;100779.56;5008287;28;20050;-53
2021/06/06 05:45:33;;;;;;;8.95;5.90;;;18.00;99.90;;;17.49;92.48;100774.19;5030634;28;20038;-52
2021/06/06 05:48:00;;;;;;;8.75;6.75;;;18.10;99.90;;;17.51;92.44;100776.66;5012274;28;20057;-51
2021/06/06 05:50:31;;;;;;;6.63;5.93;;;18.10;99.90;;;17.62;92.38;100776.19;5030694;28;20140;-51
2021/06/06 05:52:57;;;;;;;8.40;5.70;;;18.10;99.90;;;17.55;92.40;100773.47;5030941;28;20439;-50
2021/06/06 05:55:24;;;;;;;6.88;5.22;;;18.10;99.90;;;17.54;92.20;100771.84;5028576;28;20493;-49
2021/06/06 05:57:50;;;;;;;6.88;4.50;;;18.10;99.90;;;17.58;91.87;100767.03;5030797;28;20053;-53
2021/06/06 06:00:31;;;;;;;9.10;4.95;;;18.10;99.90;;;17.66;92.16;100763.50;5011918;28;20029;-50
2021/06/06 06:02:58;;;;;;;4.97;4.45;;;18.10;99.90;;;17.74;91.69;100747.59;5030727;28;20038;-52
2021/06/06 06:05:24;;;;;;;5.30;4.80;;;18.20;99.90;;;17.83;91.42;100746.50;5030200;28;20104;-51
2021/06/06 06:07:51;;;;;;;3.38;3.08;;;18.30;99.90;;;17.81;91.47;100748.50;5030772;28;20115;-55
2021/06/06 06:10:26;;;;;;;5.50;3.53;;;18.30;99.90;;;17.88;91.21;100741.50;5010017;28;20028;-53
2021/06/06 06:12:54;;;;;;;4.40;3.30;;;18.40;99.90;;;17.91;91.24;100746.41;5010106;28;20038;-53
2021/06/06 06:15:20;;;;;;;7.63;3.45;;;18.40;99.90;;;17.98;90.89;100749.91;5028786;28;20125;-50
2021/06/06 06:17:46;;;;;;;4.70;2.60;;;18.50;99.90;;;17.95;91.08;100752.13;5030691;28;20041;-51
2021/06/06 06:20:19;;;;;;;5.35;2.30;;;18.40;99.90;;;17.96;90.95;100757.19;5011535;28;20457;-51
2021/06/06 06:22:46;;;;;;;4.00;2.95;;;18.40;99.90;;;18.01;90.78;100746.91;5012841;28;20084;-52
2021/06/06 06:25:15;;;;;;;6.18;3.38;;;18.50;99.90;;;18.01;91.06;100741.63;5028010;28;20029;-52
2021/06/06 06:27:41;;;;;;;4.90;4.20;;;18.50;99.90;;;18.05;91.20;100745.53;5030512;28;20116;-50
2021/06/06 06:30:16;;;;;;;6.72;3.38;;;18.50;99.90;;;18.08;91.51;100746.97;5029931;28;20136;-52
2021/06/06 06:32:43;;;;;;;5.85;3.75;;;18.50;99.90;;;18.04;91.38;100741.25;5030399;28;20587;-47
2021/06/06 06:35:10;;;;;;;5.50;3.90;;;18.50;99.90;;;18.01;91.33;100738.97;5027251;28;20025;-49
2021/06/06 06:37:37;;;;;;;5.40;4.90;;;18.50;99.90;;;18.07;91.33;100740.88;5010414;28;20056;-50
2021/06/06 06:40:06;;;;;;;5.93;4.10;;;18.50;99.90;;;18.05;91.49;100732.34;5027986;28;20333;-50
2021/06/06 06:42:33;;;;;;;5.78;5.05;;;18.50;99.90;;;18.15;91.35;100740.75;5027841;28;20057;-53
2021/06/06 06:44:59;;;;;;;8.05;5.03;;;18.60;99.90;;;18.14;91.23;100740.94;5029920;28;20477;-52
2021/06/06 06:47:25;;;;;;;6.72;4.72;;;18.70;99.90;;;18.10;91.46;100737.06;5028651;28;20045;-52
2021/06/06 06:49:51;;;;;;;8.63;5.03;;;18.60;99.90;;;18.05;91.85;100727.06;5028724;28;20373;-53
2021/06/06 06:52:17;;;;;;;5.72;5.10;;;18.60;99.90;;;17.99;92.06;100725.16;5010686;28;20045;-53
2021/06/06 06:54:43;;;;;;;9.77;4.78;;;18.50;99.90;;;18.12;91.46;100727.13;5025859;28;20431;-56
2021/06/06 06:57:09;;;;;;;6.90;5.03;;;18.60;99.90;;;18.15;91.22;100738.13;5027619;28;20044;-51
2021/06/06 06:59:37;;;;;;;5.68;4.63;;;18.60;99.90;;;18.14;91.44;100747.03;5029936;28;20029;-49
2021/06/06 07:02:03;;;;;;;4.60;4.05;;;18.70;99.90;;;18.16;91.22;100750.31;5010618;28;20167;-54
2021/06/06 07:04:30;;;;;;;7.90;4.65;;;18.70;99.90;;;18.18;91.01;100756.22;5010587;28;20029;-50
2021/06/06 07:06:56;;;;;;;5.80;4.20;;;18.70;99.90;;;18.21;91.17;100762.94;5028156;28;20042;-55
2021/06/06 07:09:25;;;;;;;8.40;4.10;;;18.80;99.90;;;18.35;90.38;100764.72;5028504;28;20025;-51
2021/06/06 07:11:53;;;;;;;7.75;4.90;;;18.90;99.90;;;18.42;90.23;100768.25;5001211;28;20052;-52
2021/06/06 07:14:19;;;;;;;6.60;4.95;;;18.90;99.90;;;18.51;90.06;100776.81;5002499;28;20030;-54
2021/06/06 07:16:46;;;;;;;8.50;3.75;;;19.00;99.90;;;18.52;90.13;100778.44;5013935;28;20041;-50
2021/06/06 07:19:12;;;;;;;11.45;4.13;;;19.10;99.90;;;18.49;90.04;100776.19;5011152;28;20113;-52
2021/06/06 07:21:38;;;;;;;5.18;4.00;;;19.10;99.90;;;18.50;90.19;100773.38;5028869;28;20034;-53
2021/06/06 07:24:05;;;;;;;7.68;4.40;;;19.00;99.90;;;18.46;89.94;100779.19;5011390;28;20038;-51
2021/06/06 07:26:40;;;;;;;4.57;3.88;;;19.00;99.90;;;18.38;90.03;100769.63;5027668;28;20116;-50
2021/06/06 07:29:13;;;;;;;6.03;3.78;;;18.90;99.90;;;18.42;89.94;100772.69;5027863;28;20041;-56
2021/06/06 07:31:42;;;;;;;4.53;2.53;;;18.90;99.90;;;18.39;89.57;100768.63;5027564;28;20160;-51
2021/06/06 07:34:08;;;;;;;8.65;3.30;;;18.90;99.90;;;18.42;89.08;100768.25;5028913;28;20037;-54
2021/06/06 07:36:34;;;;;;;6.35;2.70;;;18.90;99.90;;;18.50;88.57;100773.38;5028820;28;20045;-52
2021/06/06 07:39:02;;;;;;;5.22;2.58;;;18.90;99.90;;;18.59;87.89;100776.69;5028899;28;20041;-52
2021/06/06 07:41:28;;;;;;;6.13;2.92;;;19.00;99.90;;;18.73;87.63;100773.22;5028820;28;20088;-51
2021/06/06 07:43:57;;;;;;;6.53;2.10;;;19.20;99.90;;;18.89;86.91;100782.69;5028623;28;20065;-51
2021/06/06 07:46:23;;;;;;;3.45;2.58;;;19.30;99.90;;;18.96;86.55;100788.00;5010504;28;20037;-54
2021/06/06 07:48:49;;;;;;;3.38;2.22;;;19.50;99.90;;;18.99;86.52;100790.25;5028601;28;20029;-51
2021/06/06 07:51:15;;;;;;;5.57;3.30;;;19.60;99.90;;;18.96;86.96;100796.72;5028438;28;20064;-49
2021/06/06 07:53:42;;;;;;;4.35;2.55;;;19.60;99.90;;;18.99;86.90;100795.53;5028223;28;20053;-50
2021/06/06 07:56:07;;;;;;;2.85;2.63;;;19.60;99.90;;;19.02;86.99;100789.88;5028365;28;20442;-52
2021/06/06 07:58:37;;;;;;;2.58;2.28;;;19.60;99.90;;;19.20;86.00;100801.59;5028295;28;20063;-48
2021/06/06 08:01:09;;;;;;;2.67;2.42;;;19.70;99.90;;;19.11;85.50;100802.75;5028240;28;20044;-50
2021/06/06 08:03:35;;;;;;;5.18;2.65;;;19.70;99.90;;;19.15;85.40;100797.91;5010393;28;20033;-49
2021/06/06 08:06:06;;;;;;;6.15;1.92;;;19.70;99.90;;;19.24;84.70;100804.69;5027873;28;20041;-49
2021/06/06 08:08:32;;;;;;;3.60;2.30;;;19.70;99.90;;;19.32;84.59;100804.53;5028078;28;20030;-50
2021/06/06 08:11:01;;;;;;;4.37;1.97;;;19.70;99.90;;;19.34;84.54;100797.22;5028171;28;20040;-53
2021/06/06 08:13:28;;;;;;;8.20;2.58;;;19.90;99.90;;;19.49;84.54;100794.44;5010483;28;20033;-50
2021/06/06 08:15:56;;;;;;;3.05;1.85;;;20.00;99.90;;;19.60;84.05;100795.75;5028060;28;20034;-54
2021/06/06 08:18:32;;;;;;;3.05;2.15;;;20.00;99.90;;;19.65;83.46;100790.72;5027982;28;20072;-58
2021/06/06 08:21:08;;;;;;;5.78;2.25;;;20.10;99.90;;;19.68;83.50;100777.91;5028301;28;20496;-56
2021/06/06 08:23:35;;;;;;;4.32;2.30;;;20.10;99.90;;;19.75;83.36;100778.78;5028130;28;20041;-50
2021/06/06 08:26:02;;;;;;;4.95;2.30;;;20.20;99.90;;;19.85;83.15;100773.09;5028004;28;20716;-55
2021/06/06 08:28:28;;;;;;;4.60;1.98;;;20.30;99.90;;;19.85;82.62;100771.25;5010310;28;20040;-50
2021/06/06 08:31:00;;;;;;;5.68;2.08;;;20.30;99.90;;;19.72;82.96;100773.88;5027819;28;20030;-54
2021/06/06 08:33:30;;;;;;;7.97;2.25;;;20.30;99.90;;;19.76;83.00;100771.66;5027930;28;20460;-51
2021/06/06 08:36:01;;;;;;;2.63;1.80;;;20.30;99.90;;;19.74;83.28;100765.75;5009834;28;20044;-50
2021/06/06 08:38:31;;;;;;;4.40;2.05;;;20.20;99.90;;;19.74;82.98;100763.91;5027979;28;20731;-53
2021/06/06 08:41:06;;;;;;;3.80;1.58;;;20.20;99.90;;;19.69;83.30;100765.53;5009761;28;20422;-57
2021/06/06 08:43:46;;;;;;;;;;;20.30;99.90;;;19.78;84.59;100772.28;5028078;28;20049;-49
2021/06/06 08:46:14;;;;;;;7.75;2.30;;;20.30;99.90;;;19.78;83.83;100765.16;5011572;28;19921;-54
2021/06/06 08:48:40;;;;;;;7.25;2.10;;;20.40;99.90;;;19.78;84.14;100767.81;5027527;28;20103;-47
2021/06/06 08:51:32;;;;;;;1.75;1.63;;;20.40;99.90;;;19.87;83.38;100765.78;5027425;28;20037;-48
2021/06/06 08:54:46;;;;;;;4.20;1.90;;;20.40;99.90;;;19.95;83.38;100762.97;5027740;28;20370;-52
2021/06/06 08:57:25;;;;;;;8.98;2.20;;;20.40;99.90;;;19.61;83.81;100750.63;5028016;28;20111;-55
2021/06/06 08:59:56;;;;;;;4.75;1.23;;;20.30;99.90;;;19.58;83.71;100747.56;5027486;28;20030;-52
2021/06/06 09:02:35;;;;;;;2.75;1.83;;;20.20;99.90;;;19.67;82.65;100749.03;5010059;28;20076;-56
2021/06/06 09:05:08;;;;;;;2.65;1.10;;;20.20;99.90;;;19.72;82.76;100741.34;5009843;28;20369;-58
2021/06/06 09:07:45;;;;;;;3.00;1.10;;;20.30;99.90;;;19.91;82.16;100745.03;5005738;28;20046;-54
2021/06/06 09:10:23;;;;;;;2.38;0.75;;;20.50;99.90;;;20.08;79.93;100735.75;5007742;28;20135;-56
2021/06/06 09:12:50;;;;;;;6.57;1.50;;;20.60;99.90;;;20.08;79.57;100731.28;5002877;28;20116;-55
2021/06/06 09:15:21;;;;;;;3.30;0.80;;;20.60;99.90;;;20.24;79.20;100737.22;5023631;28;20370;-57
2021/06/06 09:17:53;;;;;;;2.90;0.70;;;20.70;99.90;;;20.33;78.81;100728.84;5007570;28;20044;-54
2021/06/06 09:20:32;;;;;;;3.28;1.20;;;20.90;99.90;;;20.68;78.20;100721.59;5012801;28;20095;-52
2021/06/06 09:23:27;;;;;;;3.53;1.40;;;21.00;99.90;;;20.88;78.46;100732.16;5009482;28;20041;-54
2021/06/06 09:26:18;;;;;;;3.05;1.00;;;21.40;99.90;;;20.99;77.98;100730.72;5028510;28;20040;-56
2021/06/06 09:29:09;;;;;;;4.63;1.50;;;21.50;99.90;;;20.99;79.46;100736.03;5011044;28;20038;-55
2021/06/06 09:31:36;;;;;;;1.85;1.25;;;21.60;99.90;;;20.96;79.86;100739.06;5012459;28;20152;-58
2021/06/06 09:34:07;;;;;;;5.38;1.13;;;21.60;99.90;;;21.08;80.47;100745.38;5030892;28;20030;-44
2021/06/06 09:36:40;;;;;;;5.45;0.90;;;21.70;99.90;;;21.05;79.81;100745.78;5012828;28;20112;-44
2021/06/06 09:39:18;;;;;;;3.22;0.90;;;21.80;99.90;;;21.24;78.77;100742.34;5012108;28;20034;-57
2021/06/06 09:41:54;;;;;;;5.85;1.05;;;21.90;99.90;;;21.48;78.41;100749.59;5030648;28;20037;-58
2021/06/06 09:44:26;;;;;;;2.67;1.23;;;22.10;99.90;;;21.60;78.54;100746.28;5009322;28;20227;-57
2021/06/06 09:47:07;;;;;;;6.15;1.30;;;22.30;99.90;;;21.62;78.40;100741.59;5027941;28;20042;-52
2021/06/06 09:49:46;;;;;;;3.00;0.88;;;22.40;99.90;;;21.64;78.83;100743.00;5029482;28;20060;-56
2021/06/06 09:52:21;;;;;;;4.53;1.08;;;22.40;99.90;;;21.62;79.30;100744.25;5029440;28;20064;-59
2021/06/06 09:55:09;;;;;;;2.72;1.00;;;22.50;99.90;;;21.63;78.95;100741.38;5029756;28;20049;-59
2021/06/06 09:57:42;;;;;;;2.08;1.05;;;22.50;99.90;;;21.67;79.04;100732.00;5028478;28;20547;-56
2021/06/06 10:00:27;;;;;;;3.60;1.30;;;22.50;99.90;;;21.81;78.52;100733.53;5012024;28;20033;-52
2021/06/06 10:03:06;;;;;;;4.05;1.58;;;22.50;99.90;;;21.88;78.43;100733.50;5028064;28;20041;-54
2021/06/06 10:05:37;;;;;;;5.72;1.65;;;22.60;99.90;;;21.91;78.38;100737.56;5011825;28;20132;-57
2021/06/06 10:08:22;;;;;;;3.00;1.55;;;22.60;99.90;;;21.99;78.10;100737.31;5029371;28;20483;-58
2021/06/06 10:11:12;;;;;;;3.28;1.50;;;22.50;99.90;;;21.94;77.59;100732.66;5030181;28;20053;-53
2021/06/06 10:13:46;;;;;;;6.05;1.67;;;22.60;99.90;;;21.84;77.86;100734.94;5014672;28;20041;-56
2021/06/06 10:16:25;;;;;;;3.85;1.80;;;22.60;99.90;;;21.77;78.10;100731.50;5029660;28;20033;-51
2021/06/06 10:19:12;;;;;;;5.53;1.88;;;22.50;99.90;;;21.72;77.88;100737.47;5028524;28;20484;-55
2021/06/06 10:21:39;;;;;;;8.38;2.47;;;22.50;99.90;;;21.72;78.55;100737.47;5028821;28;20045;-55
2021/06/06 10:25:00;;;;;;;6.05;1.88;;;22.50;99.90;;;21.84;76.71;100737.59;5029872;28;20041;-54
2021/06/06 10:27:59;;;;;;;3.25;2.20;;;22.40;99.90;;;21.82;78.16;100734.34;4998288;28;20029;-53
2021/06/06 10:30:56;;;;;;;1.80;1.48;;;22.50;99.90;;;21.90;77.28;100739.41;5013257;28;20346;-59
2021/06/06 10:33:39;;;;;;;7.68;1.65;;;22.50;99.90;;;21.98;76.81;100741.81;5029217;28;20087;-53